sensor_id;sensor_type;location;lat;lon;timestamp;P1;durP1;ratioP1;P2;durP2;ratioP2
11039;SDS011;5573;49.592;8.662;2023-08-20T00:01:24;224.93;;;213.27;;
11039;SDS011;5573;49.592;8.662;2023-08-20T00:03:53;212.35;;;201.20;;
11039;SDS011;5573;49.592;8.662;2023-08-20T00:06:24;221.98;;;210.45;;
11039;SDS011;5573;49.592;8.662;2023-08-20T00:08:52;230.18;;;218.27;;
11039;SDS011;5573;49.592;8.662;2023-08-20T00:11:20;232.65;;;220.70;;
11039;SDS011;5573;49.592;8.662;2023-08-20T00:13:48;214.15;;;202.98;;
11039;SDS011;5573;49.592;8.662;2023-08-20T00:16:16;231.45;;;219.77;;
11039;SDS011;5573;49.592;8.662;2023-08-20T00:18:44;218.27;;;206.98;;
11039;SDS011;5573;49.592;8.662;2023-08-20T00:21:13;243.65;;;231.00;;
11039;SDS011;5573;49.592;8.662;2023-08-20T00:23:43;239.98;;;227.82;;
11039;SDS011;5573;49.592;8.662;2023-08-20T00:26:11;244.32;;;231.73;;
11039;SDS011;5573;49.592;8.662;2023-08-20T00:28:39;240.77;;;228.30;;
11039;SDS011;5573;49.592;8.662;2023-08-20T00:31:07;221.88;;;210.43;;
11039;SDS011;5573;49.592;8.662;2023-08-20T00:33:35;238.63;;;226.35;;
11039;SDS011;5573;49.592;8.662;2023-08-20T00:36:04;255.27;;;241.98;;
11039;SDS011;5573;49.592;8.662;2023-08-20T00:38:32;252.15;;;239.07;;
11039;SDS011;5573;49.592;8.662;2023-08-20T00:41:02;234.70;;;222.88;;
11039;SDS011;5573;49.592;8.662;2023-08-20T00:43:31;222.43;;;210.98;;
11039;SDS011;5573;49.592;8.662;2023-08-20T00:45:59;235.07;;;222.98;;
11039;SDS011;5573;49.592;8.662;2023-08-20T00:48:28;236.15;;;224.02;;
11039;SDS011;5573;49.592;8.662;2023-08-20T00:50:56;241.75;;;229.32;;
11039;SDS011;5573;49.592;8.662;2023-08-20T00:53:24;229.80;;;218.18;;
11039;SDS011;5573;49.592;8.662;2023-08-20T00:55:54;256.80;;;243.35;;
11039;SDS011;5573;49.592;8.662;2023-08-20T00:58:24;260.65;;;247.13;;
11039;SDS011;5573;49.592;8.662;2023-08-20T01:00:51;252.77;;;239.88;;
11039;SDS011;5573;49.592;8.662;2023-08-20T01:03:19;247.48;;;234.80;;
11039;SDS011;5573;49.592;8.662;2023-08-20T01:05:50;250.35;;;237.35;;
11039;SDS011;5573;49.592;8.662;2023-08-20T01:08:27;268.33;;;254.35;;
11039;SDS011;5573;49.592;8.662;2023-08-20T01:11:03;264.05;;;250.38;;
11039;SDS011;5573;49.592;8.662;2023-08-20T01:13:40;259.23;;;245.75;;
11039;SDS011;5573;49.592;8.662;2023-08-20T01:16:07;267.88;;;254.10;;
11039;SDS011;5573;49.592;8.662;2023-08-20T01:18:35;259.33;;;245.90;;
11039;SDS011;5573;49.592;8.662;2023-08-20T01:21:04;279.58;;;265.35;;
11039;SDS011;5573;49.592;8.662;2023-08-20T01:23:56;280.08;;;265.48;;
11039;SDS011;5573;49.592;8.662;2023-08-20T01:26:45;268.38;;;254.52;;
11039;SDS011;5573;49.592;8.662;2023-08-20T01:29:25;271.33;;;257.52;;
11039;SDS011;5573;49.592;8.662;2023-08-20T01:31:55;272.73;;;258.67;;
11039;SDS011;5573;49.592;8.662;2023-08-20T01:34:24;275.42;;;261.17;;
11039;SDS011;5573;49.592;8.662;2023-08-20T01:36:52;252.65;;;239.45;;
11039;SDS011;5573;49.592;8.662;2023-08-20T01:39:21;283.42;;;268.95;;
11039;SDS011;5573;49.592;8.662;2023-08-20T01:41:50;271.33;;;257.15;;
11039;SDS011;5573;49.592;8.662;2023-08-20T01:44:17;265.30;;;251.77;;
11039;SDS011;5573;49.592;8.662;2023-08-20T01:46:47;270.38;;;256.48;;
11039;SDS011;5573;49.592;8.662;2023-08-20T01:49:15;266.67;;;253.07;;
11039;SDS011;5573;49.592;8.662;2023-08-20T01:51:43;264.35;;;250.85;;
11039;SDS011;5573;49.592;8.662;2023-08-20T01:54:11;256.85;;;243.75;;
11039;SDS011;5573;49.592;8.662;2023-08-20T01:56:38;256.83;;;243.73;;
11039;SDS011;5573;49.592;8.662;2023-08-20T01:59:06;266.58;;;253.10;;
11039;SDS011;5573;49.592;8.662;2023-08-20T02:01:34;244.13;;;231.45;;
11039;SDS011;5573;49.592;8.662;2023-08-20T02:04:03;262.90;;;249.57;;
11039;SDS011;5573;49.592;8.662;2023-08-20T02:06:31;264.27;;;250.70;;
11039;SDS011;5573;49.592;8.662;2023-08-20T02:08:59;263.13;;;249.82;;
11039;SDS011;5573;49.592;8.662;2023-08-20T02:11:27;238.95;;;226.68;;
11039;SDS011;5573;49.592;8.662;2023-08-20T02:13:56;264.48;;;250.88;;
11039;SDS011;5573;49.592;8.662;2023-08-20T02:16:24;255.40;;;242.43;;
11039;SDS011;5573;49.592;8.662;2023-08-20T02:18:52;253.05;;;240.15;;
11039;SDS011;5573;49.592;8.662;2023-08-20T02:21:21;262.35;;;248.98;;
11039;SDS011;5573;49.592;8.662;2023-08-20T02:23:49;264.55;;;251.10;;
11039;SDS011;5573;49.592;8.662;2023-08-20T02:26:17;270.88;;;257.02;;
11039;SDS011;5573;49.592;8.662;2023-08-20T02:28:45;261.10;;;247.70;;
11039;SDS011;5573;49.592;8.662;2023-08-20T02:31:12;268.08;;;254.38;;
11039;SDS011;5573;49.592;8.662;2023-08-20T02:33:41;253.45;;;240.68;;
11039;SDS011;5573;49.592;8.662;2023-08-20T02:36:12;261.83;;;248.48;;
11039;SDS011;5573;49.592;8.662;2023-08-20T02:38:42;261.73;;;248.20;;
11039;SDS011;5573;49.592;8.662;2023-08-20T02:41:09;260.85;;;247.52;;
11039;SDS011;5573;49.592;8.662;2023-08-20T02:43:38;260.92;;;247.75;;
11039;SDS011;5573;49.592;8.662;2023-08-20T02:46:07;271.85;;;257.90;;
11039;SDS011;5573;49.592;8.662;2023-08-20T02:48:35;271.10;;;257.23;;
11039;SDS011;5573;49.592;8.662;2023-08-20T02:51:02;280.75;;;266.48;;
11039;SDS011;5573;49.592;8.662;2023-08-20T02:53:31;267.48;;;253.82;;
11039;SDS011;5573;49.592;8.662;2023-08-20T02:56:00;268.67;;;255.18;;
11039;SDS011;5573;49.592;8.662;2023-08-20T02:58:30;256.90;;;243.82;;
11039;SDS011;5573;49.592;8.662;2023-08-20T03:00:57;266.38;;;252.82;;
11039;SDS011;5573;49.592;8.662;2023-08-20T03:03:25;257.55;;;244.30;;
11039;SDS011;5573;49.592;8.662;2023-08-20T03:05:54;257.23;;;244.10;;
11039;SDS011;5573;49.592;8.662;2023-08-20T03:08:22;257.80;;;244.77;;
11039;SDS011;5573;49.592;8.662;2023-08-20T03:10:49;241.80;;;229.45;;
11039;SDS011;5573;49.592;8.662;2023-08-20T03:13:19;265.17;;;251.48;;
11039;SDS011;5573;49.592;8.662;2023-08-20T03:15:46;265.35;;;251.48;;
11039;SDS011;5573;49.592;8.662;2023-08-20T03:18:14;263.70;;;250.45;;
11039;SDS011;5573;49.592;8.662;2023-08-20T03:20:42;264.50;;;251.10;;
11039;SDS011;5573;49.592;8.662;2023-08-20T03:23:10;262.25;;;248.80;;
11039;SDS011;5573;49.592;8.662;2023-08-20T03:25:38;259.38;;;246.18;;
11039;SDS011;5573;49.592;8.662;2023-08-20T03:28:06;257.38;;;244.15;;
11039;SDS011;5573;49.592;8.662;2023-08-20T03:30:38;259.90;;;246.70;;
11039;SDS011;5573;49.592;8.662;2023-08-20T03:33:06;244.70;;;232.05;;
11039;SDS011;5573;49.592;8.662;2023-08-20T03:35:35;237.98;;;225.77;;
11039;SDS011;5573;49.592;8.662;2023-08-20T03:38:03;239.90;;;227.43;;
11039;SDS011;5573;49.592;8.662;2023-08-20T03:40:31;233.32;;;221.35;;
11039;SDS011;5573;49.592;8.662;2023-08-20T03:42:59;247.13;;;234.35;;
11039;SDS011;5573;49.592;8.662;2023-08-20T03:45:28;237.05;;;224.98;;
11039;SDS011;5573;49.592;8.662;2023-08-20T03:47:59;234.82;;;222.88;;
11039;SDS011;5573;49.592;8.662;2023-08-20T03:50:27;240.60;;;228.25;;
11039;SDS011;5573;49.592;8.662;2023-08-20T03:52:55;251.43;;;238.52;;
11039;SDS011;5573;49.592;8.662;2023-08-20T03:55:23;238.00;;;225.68;;
11039;SDS011;5573;49.592;8.662;2023-08-20T03:57:51;239.45;;;227.15;;
11039;SDS011;5573;49.592;8.662;2023-08-20T04:00:19;217.60;;;206.40;;
11039;SDS011;5573;49.592;8.662;2023-08-20T04:02:47;205.52;;;194.73;;
11039;SDS011;5573;49.592;8.662;2023-08-20T04:05:17;212.30;;;201.15;;
11039;SDS011;5573;49.592;8.662;2023-08-20T04:07:45;193.93;;;183.68;;
11039;SDS011;5573;49.592;8.662;2023-08-20T04:10:13;217.70;;;206.45;;
11039;SDS011;5573;49.592;8.662;2023-08-20T04:12:41;208.68;;;197.80;;
11039;SDS011;5573;49.592;8.662;2023-08-20T04:15:12;205.50;;;194.88;;
11039;SDS011;5573;49.592;8.662;2023-08-20T04:17:40;208.30;;;197.30;;
11039;SDS011;5573;49.592;8.662;2023-08-20T04:20:09;214.07;;;203.02;;
11039;SDS011;5573;49.592;8.662;2023-08-20T04:22:39;210.48;;;199.38;;
11039;SDS011;5573;49.592;8.662;2023-08-20T04:25:07;189.20;;;179.23;;
11039;SDS011;5573;49.592;8.662;2023-08-20T04:27:36;202.93;;;192.25;;
11039;SDS011;5573;49.592;8.662;2023-08-20T04:30:05;207.63;;;196.98;;
11039;SDS011;5573;49.592;8.662;2023-08-20T04:32:34;194.60;;;184.45;;
11039;SDS011;5573;49.592;8.662;2023-08-20T04:35:02;193.50;;;183.25;;
11039;SDS011;5573;49.592;8.662;2023-08-20T04:37:32;202.63;;;191.75;;
11039;SDS011;5573;49.592;8.662;2023-08-20T04:40:02;221.15;;;209.68;;
11039;SDS011;5573;49.592;8.662;2023-08-20T04:42:31;213.00;;;201.80;;
11039;SDS011;5573;49.592;8.662;2023-08-20T04:45:00;214.23;;;203.13;;
11039;SDS011;5573;49.592;8.662;2023-08-20T04:47:29;213.60;;;202.38;;
11039;SDS011;5573;49.592;8.662;2023-08-20T04:49:57;206.45;;;195.35;;
11039;SDS011;5573;49.592;8.662;2023-08-20T04:52:26;193.00;;;182.90;;
11039;SDS011;5573;49.592;8.662;2023-08-20T04:54:53;198.73;;;188.32;;
11039;SDS011;5573;49.592;8.662;2023-08-20T04:57:23;224.38;;;212.73;;
11039;SDS011;5573;49.592;8.662;2023-08-20T04:59:50;199.75;;;189.32;;
11039;SDS011;5573;49.592;8.662;2023-08-20T05:02:36;215.02;;;203.90;;
11039;SDS011;5573;49.592;8.662;2023-08-20T05:05:05;210.60;;;199.73;;
11039;SDS011;5573;49.592;8.662;2023-08-20T05:07:34;222.32;;;210.93;;
11039;SDS011;5573;49.592;8.662;2023-08-20T05:10:02;205.73;;;194.88;;
11039;SDS011;5573;49.592;8.662;2023-08-20T05:12:31;214.43;;;203.52;;
11039;SDS011;5573;49.592;8.662;2023-08-20T05:15:00;209.55;;;198.63;;
11039;SDS011;5573;49.592;8.662;2023-08-20T05:17:28;214.80;;;203.65;;
11039;SDS011;5573;49.592;8.662;2023-08-20T05:19:57;206.55;;;195.73;;
11039;SDS011;5573;49.592;8.662;2023-08-20T05:22:24;211.30;;;200.23;;
11039;SDS011;5573;49.592;8.662;2023-08-20T05:24:52;217.82;;;206.70;;
11039;SDS011;5573;49.592;8.662;2023-08-20T05:27:20;205.77;;;194.93;;
11039;SDS011;5573;49.592;8.662;2023-08-20T05:29:51;218.65;;;207.02;;
11039;SDS011;5573;49.592;8.662;2023-08-20T05:32:19;230.43;;;218.27;;
11039;SDS011;5573;49.592;8.662;2023-08-20T05:34:47;232.38;;;220.23;;
11039;SDS011;5573;49.592;8.662;2023-08-20T05:37:16;213.38;;;202.40;;
11039;SDS011;5573;49.592;8.662;2023-08-20T05:39:44;211.70;;;200.80;;
11039;SDS011;5573;49.592;8.662;2023-08-20T05:42:15;217.13;;;205.73;;
11039;SDS011;5573;49.592;8.662;2023-08-20T05:44:51;217.27;;;206.13;;
11039;SDS011;5573;49.592;8.662;2023-08-20T05:47:24;220.77;;;209.27;;
11039;SDS011;5573;49.592;8.662;2023-08-20T05:49:53;231.30;;;219.25;;
11039;SDS011;5573;49.592;8.662;2023-08-20T05:52:21;230.45;;;218.52;;
11039;SDS011;5573;49.592;8.662;2023-08-20T05:54:49;234.00;;;221.93;;
11039;SDS011;5573;49.592;8.662;2023-08-20T05:57:17;225.13;;;213.57;;
11039;SDS011;5573;49.592;8.662;2023-08-20T05:59:44;225.90;;;214.00;;
11039;SDS011;5573;49.592;8.662;2023-08-20T06:02:16;228.13;;;216.35;;
11039;SDS011;5573;49.592;8.662;2023-08-20T06:04:45;225.02;;;213.25;;
11039;SDS011;5573;49.592;8.662;2023-08-20T06:07:13;233.32;;;221.35;;
11039;SDS011;5573;49.592;8.662;2023-08-20T06:09:40;216.10;;;204.88;;
11039;SDS011;5573;49.592;8.662;2023-08-20T06:12:08;237.13;;;225.10;;
11039;SDS011;5573;49.592;8.662;2023-08-20T06:14:36;227.07;;;215.35;;
11039;SDS011;5573;49.592;8.662;2023-08-20T06:17:04;233.52;;;221.52;;
11039;SDS011;5573;49.592;8.662;2023-08-20T06:19:33;267.90;;;254.05;;
11039;SDS011;5573;49.592;8.662;2023-08-20T06:22:02;284.08;;;269.60;;
11039;SDS011;5573;49.592;8.662;2023-08-20T06:24:30;288.02;;;273.23;;
11039;SDS011;5573;49.592;8.662;2023-08-20T06:26:58;300.42;;;284.95;;
11039;SDS011;5573;49.592;8.662;2023-08-20T06:29:26;273.65;;;259.92;;
11039;SDS011;5573;49.592;8.662;2023-08-20T06:31:54;274.00;;;259.85;;
11039;SDS011;5573;49.592;8.662;2023-08-20T06:34:22;265.38;;;251.70;;
11039;SDS011;5573;49.592;8.662;2023-08-20T06:36:52;273.50;;;259.55;;
11039;SDS011;5573;49.592;8.662;2023-08-20T06:39:19;242.98;;;230.48;;
11039;SDS011;5573;49.592;8.662;2023-08-20T06:41:47;244.13;;;231.68;;
11039;SDS011;5573;49.592;8.662;2023-08-20T06:44:19;240.50;;;228.05;;
11039;SDS011;5573;49.592;8.662;2023-08-20T06:46:47;245.57;;;232.90;;
11039;SDS011;5573;49.592;8.662;2023-08-20T06:49:15;260.08;;;246.57;;
11039;SDS011;5573;49.592;8.662;2023-08-20T06:51:43;233.35;;;221.40;;
11039;SDS011;5573;49.592;8.662;2023-08-20T06:54:13;238.45;;;226.07;;
11039;SDS011;5573;49.592;8.662;2023-08-20T06:56:41;229.68;;;217.98;;
11039;SDS011;5573;49.592;8.662;2023-08-20T06:59:09;233.90;;;222.02;;
11039;SDS011;5573;49.592;8.662;2023-08-20T07:01:37;232.80;;;221.05;;
11039;SDS011;5573;49.592;8.662;2023-08-20T07:04:05;243.48;;;231.18;;
11039;SDS011;5573;49.592;8.662;2023-08-20T07:06:33;256.27;;;243.38;;
11039;SDS011;5573;49.592;8.662;2023-08-20T07:09:01;258.77;;;245.82;;
11039;SDS011;5573;49.592;8.662;2023-08-20T07:11:31;254.82;;;242.13;;
11039;SDS011;5573;49.592;8.662;2023-08-20T07:13:59;261.67;;;248.43;;
11039;SDS011;5573;49.592;8.662;2023-08-20T07:16:27;249.30;;;236.63;;
11039;SDS011;5573;49.592;8.662;2023-08-20T07:18:55;255.15;;;242.40;;
11039;SDS011;5573;49.592;8.662;2023-08-20T07:21:23;246.20;;;233.93;;
11039;SDS011;5573;49.592;8.662;2023-08-20T07:23:51;233.73;;;222.00;;
11039;SDS011;5573;49.592;8.662;2023-08-20T07:26:18;243.48;;;231.15;;
11039;SDS011;5573;49.592;8.662;2023-08-20T07:28:48;256.02;;;243.43;;
11039;SDS011;5573;49.592;8.662;2023-08-20T07:31:27;237.18;;;225.18;;
11039;SDS011;5573;49.592;8.662;2023-08-20T07:33:56;257.98;;;245.23;;
11039;SDS011;5573;49.592;8.662;2023-08-20T07:36:30;244.10;;;231.95;;
11039;SDS011;5573;49.592;8.662;2023-08-20T07:38:59;258.50;;;245.73;;
11039;SDS011;5573;49.592;8.662;2023-08-20T07:41:28;245.13;;;232.73;;
11039;SDS011;5573;49.592;8.662;2023-08-20T07:43:57;240.07;;;227.90;;
11039;SDS011;5573;49.592;8.662;2023-08-20T07:46:25;243.00;;;230.68;;
11039;SDS011;5573;49.592;8.662;2023-08-20T07:48:53;230.25;;;218.60;;
11039;SDS011;5573;49.592;8.662;2023-08-20T07:51:21;237.52;;;225.52;;
11039;SDS011;5573;49.592;8.662;2023-08-20T07:53:49;234.30;;;222.45;;
11039;SDS011;5573;49.592;8.662;2023-08-20T07:56:17;243.05;;;230.73;;
11039;SDS011;5573;49.592;8.662;2023-08-20T07:58:45;245.10;;;232.75;;
11039;SDS011;5573;49.592;8.662;2023-08-20T08:01:14;232.95;;;220.90;;
11039;SDS011;5573;49.592;8.662;2023-08-20T08:03:43;239.23;;;227.15;;
11039;SDS011;5573;49.592;8.662;2023-08-20T08:06:11;230.82;;;219.18;;
11039;SDS011;5573;49.592;8.662;2023-08-20T08:08:41;238.18;;;226.05;;
11039;SDS011;5573;49.592;8.662;2023-08-20T08:11:10;241.90;;;229.68;;
11039;SDS011;5573;49.592;8.662;2023-08-20T08:13:38;241.90;;;229.55;;
11039;SDS011;5573;49.592;8.662;2023-08-20T08:16:05;254.45;;;241.55;;
11039;SDS011;5573;49.592;8.662;2023-08-20T08:18:34;235.68;;;223.63;;
11039;SDS011;5573;49.592;8.662;2023-08-20T08:21:02;240.80;;;228.30;;
11039;SDS011;5573;49.592;8.662;2023-08-20T08:23:30;237.30;;;225.45;;
11039;SDS011;5573;49.592;8.662;2023-08-20T08:25:58;252.48;;;239.68;;
11039;SDS011;5573;49.592;8.662;2023-08-20T08:28:26;249.82;;;237.07;;
11039;SDS011;5573;49.592;8.662;2023-08-20T08:30:53;244.65;;;232.20;;
11039;SDS011;5573;49.592;8.662;2023-08-20T08:33:21;241.07;;;229.00;;
11039;SDS011;5573;49.592;8.662;2023-08-20T08:35:51;237.95;;;225.82;;
11039;SDS011;5573;49.592;8.662;2023-08-20T08:38:19;249.70;;;237.02;;
11039;SDS011;5573;49.592;8.662;2023-08-20T08:40:47;255.60;;;242.80;;
11039;SDS011;5573;49.592;8.662;2023-08-20T08:43:16;254.85;;;241.93;;
11039;SDS011;5573;49.592;8.662;2023-08-20T08:45:46;264.10;;;250.70;;
11039;SDS011;5573;49.592;8.662;2023-08-20T08:48:15;250.70;;;238.00;;
11039;SDS011;5573;49.592;8.662;2023-08-20T08:50:45;249.65;;;237.00;;
11039;SDS011;5573;49.592;8.662;2023-08-20T08:53:15;258.63;;;245.48;;
11039;SDS011;5573;49.592;8.662;2023-08-20T08:55:43;254.68;;;241.95;;
11039;SDS011;5573;49.592;8.662;2023-08-20T08:58:11;263.95;;;250.30;;
11039;SDS011;5573;49.592;8.662;2023-08-20T09:00:39;277.98;;;264.00;;
11039;SDS011;5573;49.592;8.662;2023-08-20T09:03:07;271.15;;;257.25;;
11039;SDS011;5573;49.592;8.662;2023-08-20T09:05:45;259.10;;;245.90;;
11039;SDS011;5573;49.592;8.662;2023-08-20T09:08:21;282.25;;;267.85;;
11039;SDS011;5573;49.592;8.662;2023-08-20T09:10:50;301.33;;;285.73;;
11039;SDS011;5573;49.592;8.662;2023-08-20T09:13:22;286.23;;;271.63;;
11039;SDS011;5573;49.592;8.662;2023-08-20T09:15:51;294.08;;;278.88;;
11039;SDS011;5573;49.592;8.662;2023-08-20T09:18:20;292.73;;;277.40;;
11039;SDS011;5573;49.592;8.662;2023-08-20T09:20:48;300.75;;;285.17;;
11039;SDS011;5573;49.592;8.662;2023-08-20T09:23:17;333.45;;;316.20;;
11039;SDS011;5573;49.592;8.662;2023-08-20T09:25:46;330.80;;;313.63;;
11039;SDS011;5573;49.592;8.662;2023-08-20T09:28:14;320.73;;;303.75;;
11039;SDS011;5573;49.592;8.662;2023-08-20T09:30:54;330.50;;;313.30;;
11039;SDS011;5573;49.592;8.662;2023-08-20T09:33:23;328.67;;;311.63;;
11039;SDS011;5573;49.592;8.662;2023-08-20T09:35:51;356.70;;;337.80;;
11039;SDS011;5573;49.592;8.662;2023-08-20T09:38:20;348.20;;;330.10;;
11039;SDS011;5573;49.592;8.662;2023-08-20T09:40:51;357.80;;;338.92;;
11039;SDS011;5573;49.592;8.662;2023-08-20T09:43:19;365.88;;;346.48;;
11039;SDS011;5573;49.592;8.662;2023-08-20T09:45:52;352.42;;;333.80;;
11039;SDS011;5573;49.592;8.662;2023-08-20T09:48:22;363.95;;;344.98;;
11039;SDS011;5573;49.592;8.662;2023-08-20T09:50:55;335.52;;;318.00;;
11039;SDS011;5573;49.592;8.662;2023-08-20T09:53:30;343.85;;;326.00;;
11039;SDS011;5573;49.592;8.662;2023-08-20T09:56:06;344.25;;;326.27;;
11039;SDS011;5573;49.592;8.662;2023-08-20T09:58:38;351.42;;;332.60;;
11039;SDS011;5573;49.592;8.662;2023-08-20T10:01:07;337.02;;;319.42;;
11039;SDS011;5573;49.592;8.662;2023-08-20T10:03:35;345.60;;;327.50;;
11039;SDS011;5573;49.592;8.662;2023-08-20T10:06:04;341.70;;;323.48;;
11039;SDS011;5573;49.592;8.662;2023-08-20T10:08:33;323.08;;;306.02;;
11039;SDS011;5573;49.592;8.662;2023-08-20T10:11:02;323.58;;;306.67;;
11039;SDS011;5573;49.592;8.662;2023-08-20T10:13:31;344.35;;;326.33;;
11039;SDS011;5573;49.592;8.662;2023-08-20T10:15:59;337.25;;;319.75;;
11039;SDS011;5573;49.592;8.662;2023-08-20T10:18:27;348.48;;;330.30;;
11039;SDS011;5573;49.592;8.662;2023-08-20T10:20:58;326.92;;;310.05;;
11039;SDS011;5573;49.592;8.662;2023-08-20T10:23:29;345.55;;;327.48;;
11039;SDS011;5573;49.592;8.662;2023-08-20T10:26:06;312.55;;;296.65;;
11039;SDS011;5573;49.592;8.662;2023-08-20T10:28:37;315.75;;;299.45;;
11039;SDS011;5573;49.592;8.662;2023-08-20T10:31:06;317.05;;;300.92;;
11039;SDS011;5573;49.592;8.662;2023-08-20T10:33:35;296.83;;;281.50;;
11039;SDS011;5573;49.592;8.662;2023-08-20T10:36:08;322.35;;;306.05;;
11039;SDS011;5573;49.592;8.662;2023-08-20T10:38:38;311.45;;;295.10;;
11039;SDS011;5573;49.592;8.662;2023-08-20T10:41:06;304.33;;;288.92;;
11039;SDS011;5573;49.592;8.662;2023-08-20T10:43:37;299.50;;;283.88;;
11039;SDS011;5573;49.592;8.662;2023-08-20T10:46:06;314.52;;;298.30;;
11039;SDS011;5573;49.592;8.662;2023-08-20T10:48:46;303.40;;;287.98;;
11039;SDS011;5573;49.592;8.662;2023-08-20T10:51:16;320.20;;;303.90;;
11039;SDS011;5573;49.592;8.662;2023-08-20T10:53:48;296.35;;;281.33;;
11039;SDS011;5573;49.592;8.662;2023-08-20T10:56:37;306.52;;;291.10;;
11039;SDS011;5573;49.592;8.662;2023-08-20T10:59:08;309.95;;;294.13;;
11039;SDS011;5573;49.592;8.662;2023-08-20T11:01:37;279.52;;;265.33;;
11039;SDS011;5573;49.592;8.662;2023-08-20T11:04:05;297.15;;;282.33;;
11039;SDS011;5573;49.592;8.662;2023-08-20T11:06:34;294.13;;;279.23;;
11039;SDS011;5573;49.592;8.662;2023-08-20T11:09:01;280.73;;;266.52;;
11039;SDS011;5573;49.592;8.662;2023-08-20T11:11:32;290.98;;;276.40;;
11039;SDS011;5573;49.592;8.662;2023-08-20T11:14:04;302.77;;;287.50;;
11039;SDS011;5573;49.592;8.662;2023-08-20T11:16:35;293.23;;;278.42;;
11039;SDS011;5573;49.592;8.662;2023-08-20T11:19:03;302.38;;;287.35;;
11039;SDS011;5573;49.592;8.662;2023-08-20T11:21:35;308.70;;;292.92;;
11039;SDS011;5573;49.592;8.662;2023-08-20T11:24:04;299.63;;;284.52;;
11039;SDS011;5573;49.592;8.662;2023-08-20T11:26:32;305.25;;;289.75;;
11039;SDS011;5573;49.592;8.662;2023-08-20T11:29:05;297.23;;;282.15;;
11039;SDS011;5573;49.592;8.662;2023-08-20T11:31:34;312.75;;;296.90;;
11039;SDS011;5573;49.592;8.662;2023-08-20T11:34:03;322.45;;;306.35;;
11039;SDS011;5573;49.592;8.662;2023-08-20T11:36:31;305.48;;;289.90;;
11039;SDS011;5573;49.592;8.662;2023-08-20T11:39:00;309.15;;;293.08;;
11039;SDS011;5573;49.592;8.662;2023-08-20T11:41:27;310.45;;;294.63;;
11039;SDS011;5573;49.592;8.662;2023-08-20T11:43:56;320.30;;;303.98;;
11039;SDS011;5573;49.592;8.662;2023-08-20T11:46:23;333.05;;;315.67;;
11039;SDS011;5573;49.592;8.662;2023-08-20T11:48:59;316.92;;;300.75;;
11039;SDS011;5573;49.592;8.662;2023-08-20T11:51:27;314.90;;;298.50;;
11039;SDS011;5573;49.592;8.662;2023-08-20T11:53:55;312.17;;;296.17;;
11039;SDS011;5573;49.592;8.662;2023-08-20T11:56:24;289.85;;;275.27;;
11039;SDS011;5573;49.592;8.662;2023-08-20T11:58:58;293.63;;;278.77;;
11039;SDS011;5573;49.592;8.662;2023-08-20T12:01:29;294.55;;;279.52;;
11039;SDS011;5573;49.592;8.662;2023-08-20T12:04:00;283.13;;;268.63;;
11039;SDS011;5573;49.592;8.662;2023-08-20T12:06:30;310.27;;;294.63;;
11039;SDS011;5573;49.592;8.662;2023-08-20T12:08:58;297.20;;;282.20;;
11039;SDS011;5573;49.592;8.662;2023-08-20T12:11:26;282.20;;;267.77;;
11039;SDS011;5573;49.592;8.662;2023-08-20T12:13:55;291.75;;;276.80;;
11039;SDS011;5573;49.592;8.662;2023-08-20T12:16:23;290.80;;;276.05;;
11039;SDS011;5573;49.592;8.662;2023-08-20T12:18:51;300.52;;;285.33;;
11039;SDS011;5573;49.592;8.662;2023-08-20T12:21:21;294.55;;;279.48;;
11039;SDS011;5573;49.592;8.662;2023-08-20T12:23:49;302.02;;;286.50;;
11039;SDS011;5573;49.592;8.662;2023-08-20T12:26:17;304.63;;;289.13;;
11039;SDS011;5573;49.592;8.662;2023-08-20T12:28:45;305.60;;;289.83;;
11039;SDS011;5573;49.592;8.662;2023-08-20T12:31:12;311.98;;;296.15;;
11039;SDS011;5573;49.592;8.662;2023-08-20T12:33:41;308.33;;;292.63;;
11039;SDS011;5573;49.592;8.662;2023-08-20T12:36:08;298.45;;;283.08;;
11039;SDS011;5573;49.592;8.662;2023-08-20T12:38:38;312.05;;;296.17;;
11039;SDS011;5573;49.592;8.662;2023-08-20T12:41:07;319.58;;;303.23;;
11039;SDS011;5573;49.592;8.662;2023-08-20T12:43:35;324.88;;;308.30;;
11039;SDS011;5573;49.592;8.662;2023-08-20T12:46:03;328.50;;;311.67;;
11039;SDS011;5573;49.592;8.662;2023-08-20T12:48:31;325.55;;;308.95;;
11039;SDS011;5573;49.592;8.662;2023-08-20T12:50:59;320.58;;;304.33;;
11039;SDS011;5573;49.592;8.662;2023-08-20T12:53:27;319.13;;;302.92;;
11039;SDS011;5573;49.592;8.662;2023-08-20T12:55:56;330.85;;;314.25;;
11039;SDS011;5573;49.592;8.662;2023-08-20T12:58:24;320.83;;;304.52;;
11039;SDS011;5573;49.592;8.662;2023-08-20T13:00:52;337.15;;;320.08;;
11039;SDS011;5573;49.592;8.662;2023-08-20T13:03:20;330.92;;;314.08;;
11039;SDS011;5573;49.592;8.662;2023-08-20T13:05:48;319.88;;;303.42;;
11039;SDS011;5573;49.592;8.662;2023-08-20T13:08:17;313.92;;;298.00;;
11039;SDS011;5573;49.592;8.662;2023-08-20T13:10:46;326.92;;;310.30;;
11039;SDS011;5573;49.592;8.662;2023-08-20T13:13:21;309.92;;;294.27;;
11039;SDS011;5573;49.592;8.662;2023-08-20T13:15:51;335.75;;;318.65;;
11039;SDS011;5573;49.592;8.662;2023-08-20T13:18:21;329.10;;;312.20;;
11039;SDS011;5573;49.592;8.662;2023-08-20T13:20:51;349.08;;;331.20;;
11039;SDS011;5573;49.592;8.662;2023-08-20T13:23:19;333.75;;;316.77;;
11039;SDS011;5573;49.592;8.662;2023-08-20T13:25:48;324.77;;;308.38;;
11039;SDS011;5573;49.592;8.662;2023-08-20T13:28:16;329.80;;;313.15;;
11039;SDS011;5573;49.592;8.662;2023-08-20T13:30:45;319.70;;;303.45;;
11039;SDS011;5573;49.592;8.662;2023-08-20T13:33:13;323.48;;;306.83;;
11039;SDS011;5573;49.592;8.662;2023-08-20T13:35:41;334.02;;;317.10;;
11039;SDS011;5573;49.592;8.662;2023-08-20T13:38:09;327.42;;;310.52;;
11039;SDS011;5573;49.592;8.662;2023-08-20T13:40:37;333.00;;;315.60;;
11039;SDS011;5573;49.592;8.662;2023-08-20T13:43:05;340.27;;;323.13;;
11039;SDS011;5573;49.592;8.662;2023-08-20T13:45:35;333.63;;;316.45;;
11039;SDS011;5573;49.592;8.662;2023-08-20T13:48:05;337.17;;;319.90;;
11039;SDS011;5573;49.592;8.662;2023-08-20T13:50:34;344.63;;;326.92;;
11039;SDS011;5573;49.592;8.662;2023-08-20T13:53:02;324.20;;;307.48;;
11039;SDS011;5573;49.592;8.662;2023-08-20T13:55:30;337.67;;;320.60;;
11039;SDS011;5573;49.592;8.662;2023-08-20T13:57:58;328.02;;;311.27;;
11039;SDS011;5573;49.592;8.662;2023-08-20T14:00:26;331.05;;;314.00;;
11039;SDS011;5573;49.592;8.662;2023-08-20T14:02:54;343.48;;;325.95;;
11039;SDS011;5573;49.592;8.662;2023-08-20T14:05:23;328.13;;;311.40;;
11039;SDS011;5573;49.592;8.662;2023-08-20T14:07:51;332.75;;;315.85;;
11039;SDS011;5573;49.592;8.662;2023-08-20T14:10:19;342.17;;;324.65;;
11039;SDS011;5573;49.592;8.662;2023-08-20T14:12:47;357.35;;;338.70;;
11039;SDS011;5573;49.592;8.662;2023-08-20T14:15:15;331.95;;;314.80;;
11039;SDS011;5573;49.592;8.662;2023-08-20T14:17:43;331.55;;;314.77;;
11039;SDS011;5573;49.592;8.662;2023-08-20T14:20:11;326.40;;;309.67;;